createdAt,value
2023-04-02T00:00:11.874Z,96.39
2023-04-02T00:01:11.761Z,96.28
2023-04-02T00:02:11.849Z,96.18
2023-04-02T00:03:11.819Z,96.08
2023-04-02T00:04:11.826Z,96.18
2023-04-02T00:05:11.742Z,96.28
2023-04-02T00:06:11.702Z,96.28
2023-04-02T00:07:11.693Z,96.28
2023-04-02T00:08:11.766Z,96.18
2023-04-02T00:09:11.675Z,96.28
2023-04-02T00:10:11.729Z,96.02
2023-04-02T00:11:11.658Z,96.02
2023-04-02T00:12:11.636Z,96.02
2023-04-02T00:13:11.614Z,96.02
2023-04-02T00:14:11.623Z,96.02
2023-04-02T00:15:11.612Z,96.02
2023-04-02T00:16:11.720Z,96.02
2023-04-02T00:17:11.581Z,96.02
2023-04-02T00:18:11.681Z,96.12
2023-04-02T00:19:11.622Z,96.23
2023-04-02T00:20:11.565Z,96.12
2023-04-02T00:21:11.551Z,96.12
2023-04-02T00:22:11.566Z,96.23
2023-04-02T00:23:11.574Z,96.12
2023-04-02T00:24:11.516Z,96.23
2023-04-02T00:25:11.502Z,96.23
2023-04-02T00:26:11.484Z,96.12
2023-04-02T00:27:11.487Z,96.02
2023-04-02T00:28:11.476Z,96.02
2023-04-02T00:29:11.499Z,95.81
2023-04-02T00:30:11.444Z,95.81
2023-04-02T00:31:11.473Z,95.81
2023-04-02T00:32:11.508Z,95.86
2023-04-02T00:33:11.452Z,95.65
2023-04-02T00:34:11.413Z,95.65
2023-04-02T00:35:11.425Z,95.65
2023-04-02T00:36:11.466Z,95.65
2023-04-02T00:37:11.362Z,95.55
2023-04-02T00:38:11.360Z,95.55
2023-04-02T00:39:11.342Z,95.55
2023-04-02T00:40:11.376Z,95.65
2023-04-02T00:41:11.324Z,95.45
2023-04-02T00:42:14.543Z,95.24
2023-04-02T00:43:11.304Z,95.03
2023-04-02T00:44:11.303Z,94.93
2023-04-02T00:45:11.283Z,95.03
2023-04-02T00:46:11.310Z,95.14
2023-04-02T00:47:11.259Z,95.14
2023-04-02T00:48:11.397Z,95.03
2023-04-02T00:49:11.250Z,94.93
2023-04-02T00:50:11.281Z,94.82
2023-04-02T00:51:11.236Z,94.72
2023-04-02T00:52:11.239Z,94.72
2023-04-02T00:53:11.448Z,94.62
2023-04-02T00:54:11.193Z,94.72
2023-04-02T00:55:11.221Z,94.62
2023-04-02T00:56:11.171Z,94.42
2023-04-02T00:57:11.175Z,94.31
2023-04-02T00:58:11.208Z,94.42
2023-04-02T00:59:11.177Z,94.52
2023-04-02T01:00:11.126Z,94.62
2023-04-02T01:01:11.139Z,94.72
2023-04-02T01:02:11.155Z,94.62
2023-04-02T01:03:11.193Z,94.52
2023-04-02T01:04:11.116Z,94.52
2023-04-02T01:05:11.072Z,94.52
2023-04-02T01:06:11.202Z,94.52
2023-04-02T01:07:11.054Z,94.42
2023-04-02T01:08:11.048Z,94.42
2023-04-02T01:09:11.062Z,94.42
2023-04-02T01:10:11.023Z,94.21
2023-04-02T01:11:11.038Z,94.31
2023-04-02T01:12:11.011Z,94.42
2023-04-02T01:13:11.110Z,94.52
2023-04-02T01:14:10.983Z,94.62
2023-04-02T01:15:11.024Z,94.72
2023-04-02T01:16:10.983Z,94.62
2023-04-02T01:17:10.947Z,94.72
2023-04-02T01:18:10.938Z,94.82
2023-04-02T01:19:10.919Z,94.82
2023-04-02T01:20:10.923Z,94.82
2023-04-02T01:21:11.438Z,94.82
2023-04-02T01:22:10.933Z,94.62
2023-04-02T01:23:10.899Z,94.62
2023-04-02T01:24:10.887Z,94.56
2023-04-02T01:25:11.666Z,94.35
2023-04-02T01:26:10.871Z,94.35
2023-04-02T01:27:10.831Z,94.15
2023-04-02T01:28:10.846Z,94.04
2023-04-02T01:29:10.820Z,94.15
2023-04-02T01:30:10.851Z,94.15
2023-04-02T01:31:10.976Z,94.25
2023-04-02T01:32:10.857Z,94.25
2023-04-02T01:33:10.789Z,94.25
2023-04-02T01:34:10.767Z,94.15
2023-04-02T01:35:10.745Z,94.04
2023-04-02T01:36:10.779Z,94.04
2023-04-02T01:37:10.759Z,93.94
2023-04-02T01:38:10.722Z,93.98
2023-04-02T01:39:10.730Z,93.88
2023-04-02T01:40:10.709Z,93.98
2023-04-02T01:41:10.694Z,93.88
2023-04-02T01:42:10.696Z,93.57
2023-04-02T01:43:10.783Z,93.57
2023-04-02T01:44:10.656Z,93.57
2023-04-02T01:45:10.723Z,93.57
2023-04-02T01:46:10.659Z,93.57
2023-04-02T01:47:10.684Z,93.37
2023-04-02T01:48:10.674Z,93.47
2023-04-02T01:49:10.612Z,93.68
2023-04-02T01:50:10.594Z,93.88
2023-04-02T01:51:10.630Z,93.88
2023-04-02T01:52:10.628Z,93.88
2023-04-02T01:53:10.562Z,93.88
2023-04-02T01:54:10.604Z,93.98
2023-04-02T01:55:10.548Z,94.09
2023-04-02T01:56:10.522Z,94.19
2023-04-02T01:57:10.553Z,94.09
2023-04-02T01:58:10.516Z,94.09
2023-04-02T01:59:10.489Z,94.19
2023-04-02T02:00:10.548Z,94.29
2023-04-02T02:01:10.597Z,94.29
2023-04-02T02:02:10.498Z,94.40
2023-04-02T02:03:10.484Z,94.50
2023-04-02T02:04:10.462Z,94.81
2023-04-02T02:05:10.428Z,94.92
2023-04-02T02:06:10.451Z,95.02
2023-04-02T02:07:10.407Z,95.12
2023-04-02T02:08:10.415Z,95.12
2023-04-02T02:09:10.416Z,95.12
2023-04-02T02:10:10.382Z,95.02
2023-04-02T02:11:10.366Z,95.02
2023-04-02T02:12:10.429Z,95.12
2023-04-02T02:13:10.361Z,95.12
2023-04-02T02:14:10.336Z,94.92
2023-04-02T02:15:10.359Z,94.81
2023-04-02T02:16:10.501Z,94.60
2023-04-02T02:17:10.299Z,94.50
2023-04-02T02:18:10.298Z,94.40
2023-04-02T02:19:10.281Z,94.40
2023-04-02T02:20:10.278Z,94.29
2023-04-02T02:21:10.307Z,94.19
2023-04-02T02:22:10.286Z,94.13
2023-04-02T02:23:10.253Z,94.03
2023-04-02T02:24:10.291Z,94.03
2023-04-02T02:25:10.215Z,94.03
2023-04-02T02:26:10.222Z,93.93
2023-04-02T02:27:10.201Z,93.93
2023-04-02T02:28:10.194Z,94.13
2023-04-02T02:29:10.180Z,94.13
2023-04-02T02:30:10.210Z,94.13
2023-04-02T02:31:10.150Z,94.23
2023-04-02T02:32:10.188Z,94.23
2023-04-02T02:33:10.178Z,94.23
2023-04-02T02:34:10.151Z,94.03
2023-04-02T02:35:10.136Z,94.03
2023-04-02T02:36:10.161Z,94.03
2023-04-02T02:37:10.163Z,94.13
2023-04-02T02:38:10.126Z,94.44
2023-04-02T02:39:10.079Z,94.54
2023-04-02T02:40:10.062Z,94.54
2023-04-02T02:41:10.092Z,94.48
2023-04-02T02:42:10.070Z,94.48
2023-04-02T02:43:10.033Z,94.59
2023-04-02T02:44:10.017Z,94.59
2023-04-02T02:45:10.008Z,94.69
2023-04-02T02:46:10.025Z,94.59
2023-04-02T02:47:09.985Z,94.69
2023-04-02T02:48:10.018Z,94.48
2023-04-02T02:49:09.972Z,94.38
2023-04-02T02:50:09.951Z,94.28
2023-04-02T02:51:09.983Z,94.38
2023-04-02T02:52:09.932Z,94.38
2023-04-02T02:53:09.915Z,94.48
2023-04-02T02:54:09.945Z,94.38
2023-04-02T02:55:09.901Z,94.38
2023-04-02T02:56:09.934Z,94.38
2023-04-02T02:57:09.933Z,94.48
2023-04-02T02:58:09.873Z,94.48
2023-04-02T02:59:09.864Z,94.59
2023-04-02T03:00:09.856Z,94.69
2023-04-02T03:01:09.896Z,94.69
2023-04-02T03:02:09.905Z,94.69
2023-04-02T03:03:10.092Z,94.69
2023-04-02T03:04:09.916Z,94.69
2023-04-02T03:05:09.829Z,94.69
2023-04-02T03:06:09.781Z,94.69
2023-04-02T03:07:09.773Z,94.69
2023-04-02T03:08:09.766Z,94.63
2023-04-02T03:09:09.812Z,94.53
2023-04-02T03:10:09.776Z,94.63
2023-04-02T03:11:09.732Z,94.32
2023-04-02T03:12:09.710Z,94.22
2023-04-02T03:13:09.716Z,94.12
2023-04-02T03:14:09.692Z,93.91
2023-04-02T03:15:09.690Z,93.70
2023-04-02T03:16:09.808Z,93.80
2023-04-02T03:17:09.779Z,93.91
2023-04-02T03:18:09.700Z,93.91
2023-04-02T03:19:09.652Z,94.12
2023-04-02T03:20:09.629Z,94.01
2023-04-02T03:21:09.632Z,93.80
2023-04-02T03:22:09.612Z,93.49
2023-04-02T03:23:09.664Z,93.39
2023-04-02T03:24:09.593Z,93.49
2023-04-02T03:25:09.591Z,93.70
2023-04-02T03:26:09.576Z,93.60
2023-04-02T03:27:09.617Z,93.70
2023-04-02T03:28:09.605Z,93.80
2023-04-02T03:29:09.564Z,93.91
2023-04-02T03:30:10.271Z,93.80
2023-04-02T03:31:09.534Z,93.70
2023-04-02T03:32:09.585Z,93.70
2023-04-02T03:33:09.587Z,93.80
2023-04-02T03:34:09.635Z,93.80
2023-04-02T03:35:09.486Z,93.91
2023-04-02T03:36:09.471Z,94.01
2023-04-02T03:37:09.502Z,94.12
2023-04-02T03:38:09.452Z,94.22
2023-04-02T03:39:09.442Z,94.22
2023-04-02T03:40:09.479Z,94.32
2023-04-02T03:41:09.474Z,94.32
2023-04-02T03:42:09.409Z,94.32
2023-04-02T03:43:09.391Z,94.43
2023-04-02T03:44:09.389Z,94.53
2023-04-02T03:45:09.379Z,94.53
2023-04-02T03:46:09.435Z,94.12
2023-04-02T03:47:09.437Z,93.80
2023-04-02T03:48:09.339Z,93.54
2023-04-02T03:49:09.372Z,93.29
2023-04-02T03:50:09.314Z,93.23
2023-04-02T03:51:09.305Z,93.23
2023-04-02T03:52:09.309Z,93.18
2023-04-02T03:53:09.334Z,92.97
2023-04-02T03:54:09.267Z,93.02
2023-04-02T03:55:09.334Z,93.08
2023-04-02T03:56:09.303Z,92.97
2023-04-02T03:57:09.278Z,93.12
2023-04-02T03:58:09.315Z,93.18
2023-04-02T03:59:09.220Z,93.18
2023-04-02T04:00:09.218Z,93.23
2023-04-02T04:01:09.198Z,93.29
2023-04-02T04:02:09.307Z,93.43
2023-04-02T04:03:09.217Z,93.43
2023-04-02T04:04:09.215Z,93.54
2023-04-02T04:05:09.159Z,93.74
2023-04-02T04:06:09.140Z,93.54
2023-04-02T04:07:09.139Z,93.64
2023-04-02T04:08:09.166Z,93.74
2023-04-02T04:09:09.111Z,93.95
2023-04-02T04:10:09.112Z,93.95
2023-04-02T04:11:09.139Z,93.95
2023-04-02T04:12:09.133Z,93.95
2023-04-02T04:13:09.096Z,94.06
2023-04-02T04:14:09.063Z,94.06
2023-04-02T04:15:09.054Z,94.06
2023-04-02T04:16:09.073Z,94.16
2023-04-02T04:17:09.045Z,94.37
2023-04-02T04:18:09.101Z,94.26
2023-04-02T04:19:09.006Z,94.16
2023-04-02T04:20:09.015Z,93.99
2023-04-02T04:21:09.110Z,93.89
2023-04-02T04:22:08.975Z,93.68
2023-04-02T04:23:09.010Z,93.48
2023-04-02T04:24:08.956Z,93.16
2023-04-02T04:25:08.958Z,93.16
2023-04-02T04:26:08.943Z,92.85
2023-04-02T04:27:08.925Z,92.55
2023-04-02T04:28:08.911Z,92.44
2023-04-02T04:29:09.833Z,92.44
2023-04-02T04:30:08.896Z,92.49
2023-04-02T04:31:08.890Z,92.38
2023-04-02T04:32:08.923Z,92.38
2023-04-02T04:33:08.906Z,92.34
2023-04-02T04:34:08.846Z,92.38
2023-04-02T04:35:08.873Z,92.44
2023-04-02T04:36:08.987Z,92.44
2023-04-02T04:37:08.825Z,92.44
2023-04-02T04:38:08.829Z,92.44
2023-04-02T04:39:08.867Z,92.38
2023-04-02T04:40:08.789Z,92.44
2023-04-02T04:41:08.811Z,92.55
2023-04-02T04:42:08.769Z,92.55
2023-04-02T04:43:08.764Z,92.44
2023-04-02T04:44:08.787Z,92.44
2023-04-02T04:45:08.740Z,92.49
2023-04-02T04:46:08.849Z,92.69
2023-04-02T04:47:08.716Z,92.76
2023-04-02T04:48:08.728Z,92.96
2023-04-02T04:49:08.694Z,92.85
2023-04-02T04:50:08.714Z,92.85
2023-04-02T04:51:08.680Z,92.76
2023-04-02T04:52:08.667Z,92.76
2023-04-02T04:53:08.661Z,92.76
2023-04-02T04:54:08.651Z,92.85
2023-04-02T04:55:08.728Z,92.85
2023-04-02T04:56:18.538Z,92.90
2023-04-02T04:57:09.681Z,92.80
2023-04-02T04:58:08.595Z,92.80
2023-04-02T04:59:08.655Z,92.80
2023-04-02T05:00:08.580Z,92.80
2023-04-02T05:01:08.588Z,92.80
2023-04-02T05:02:08.554Z,92.59
2023-04-02T05:03:08.547Z,92.28
2023-04-02T05:04:08.593Z,92.28
2023-04-02T05:05:08.579Z,92.43
2023-04-02T05:06:09.932Z,92.43
2023-04-02T05:07:10.588Z,92.63
2023-04-02T05:08:08.498Z,92.53
2023-04-02T05:09:08.488Z,92.63
2023-04-02T05:10:08.461Z,92.84
2023-04-02T05:11:08.507Z,92.84
2023-04-02T05:12:08.450Z,92.84
2023-04-02T05:13:08.452Z,92.94
2023-04-02T05:14:08.521Z,93.04
2023-04-02T05:15:08.526Z,92.84
2023-04-02T05:16:08.443Z,92.63
2023-04-02T05:17:08.438Z,92.43
2023-04-02T05:18:08.380Z,92.22
2023-04-02T05:19:08.409Z,92.11
2023-04-02T05:20:08.365Z,92.01
2023-04-02T05:21:08.363Z,92.11
2023-04-02T05:22:08.339Z,92.22
2023-04-02T05:23:08.333Z,92.22
2023-04-02T05:24:08.324Z,92.11
2023-04-02T05:25:08.415Z,92.01
2023-04-02T05:26:08.304Z,91.91
2023-04-02T05:27:08.316Z,91.70
2023-04-02T05:28:08.317Z,91.60
2023-04-02T05:29:08.327Z,91.60
2023-04-02T05:30:08.278Z,91.39
2023-04-02T05:31:08.292Z,91.60
2023-04-02T05:32:08.238Z,91.28
2023-04-02T05:33:08.286Z,91.18
2023-04-02T05:34:08.230Z,91.08
2023-04-02T05:35:08.207Z,90.77
2023-04-02T05:36:08.270Z,90.77
2023-04-02T05:37:08.208Z,90.66
2023-04-02T05:38:08.186Z,90.56
2023-04-02T05:39:08.209Z,90.56
2023-04-02T05:40:08.200Z,90.56
2023-04-02T05:41:08.165Z,90.45
2023-04-02T05:42:08.181Z,90.35
2023-04-02T05:43:08.152Z,90.45
2023-04-02T05:44:10.042Z,90.45
2023-04-02T05:45:08.127Z,90.35
2023-04-02T05:46:08.123Z,90.04
2023-04-02T05:47:08.087Z,90.04
2023-04-02T05:48:08.077Z,90.04
2023-04-02T05:49:08.158Z,90.14
2023-04-02T05:50:08.063Z,90.04
2023-04-02T05:51:08.042Z,90.14
2023-04-02T05:52:08.039Z,90.04
2023-04-02T05:53:08.035Z,90.08
2023-04-02T05:54:08.020Z,90.19
2023-04-02T05:55:08.039Z,90.19
2023-04-02T05:56:08.001Z,89.98
2023-04-02T05:57:08.021Z,89.87
2023-04-02T05:58:31.960Z,90.04
2023-04-02T05:59:08.983Z,90.04
2023-04-02T06:00:07.973Z,89.94
2023-04-02T06:01:07.973Z,90.04
2023-04-02T06:02:07.965Z,90.04
2023-04-02T06:03:08.098Z,90.04
2023-04-02T06:04:07.993Z,90.04
2023-04-02T06:05:07.898Z,89.83
2023-04-02T06:06:07.913Z,89.83
2023-04-02T06:07:07.921Z,89.62
2023-04-02T06:08:07.866Z,89.21
2023-04-02T06:09:07.850Z,89.11
2023-04-02T06:10:07.846Z,89.11
2023-04-02T06:11:07.835Z,89.21
2023-04-02T06:12:07.948Z,89.11
2023-04-02T06:13:07.877Z,89.11
2023-04-02T06:14:07.805Z,89.11
2023-04-02T06:15:07.792Z,89.11
2023-04-02T06:16:07.781Z,89.11
2023-04-02T06:17:09.346Z,89.00
2023-04-02T06:18:07.818Z,89.11
2023-04-02T06:19:07.763Z,89.11
2023-04-02T06:20:07.786Z,89.00
2023-04-02T06:21:07.725Z,89.00
2023-04-02T06:22:07.716Z,89.11
2023-04-02T06:23:11.618Z,89.21
2023-04-02T06:24:07.700Z,89.11
2023-04-02T06:25:07.698Z,89.21
2023-04-02T06:26:08.644Z,89.21
2023-04-02T06:27:07.656Z,89.11
2023-04-02T06:28:07.711Z,89.31
2023-04-02T06:29:07.699Z,89.83
2023-04-02T06:30:07.625Z,89.94
2023-04-02T06:31:07.861Z,89.94
2023-04-02T06:32:07.628Z,90.04
2023-04-02T06:33:07.763Z,89.83
2023-04-02T06:34:07.630Z,89.94
2023-04-02T06:35:07.582Z,89.94
2023-04-02T06:36:07.604Z,90.04
2023-04-02T06:37:07.558Z,90.14
2023-04-02T06:38:07.546Z,90.35
2023-04-02T06:39:07.561Z,90.25
2023-04-02T06:40:10.004Z,90.29
2023-04-02T06:41:07.509Z,90.29
2023-04-02T06:42:07.579Z,90.45
2023-04-02T06:43:07.497Z,90.56
2023-04-02T06:44:07.512Z,90.66
2023-04-02T06:45:10.337Z,90.50
2023-04-02T06:46:07.517Z,90.29
2023-04-02T06:47:07.480Z,89.98
2023-04-02T06:48:07.498Z,89.98
2023-04-02T06:49:07.441Z,89.87
2023-04-02T06:50:09.317Z,89.67
2023-04-02T06:51:07.428Z,89.77
2023-04-02T06:52:07.415Z,89.46
2023-04-02T06:53:07.397Z,89.04
2023-04-02T06:54:07.413Z,89.25
2023-04-02T06:55:07.478Z,89.36
2023-04-02T06:56:07.360Z,89.15
2023-04-02T06:57:07.737Z,88.94
2023-04-02T06:58:07.368Z,88.84
2023-04-02T06:59:07.386Z,88.84
2023-04-02T07:00:07.351Z,88.73
2023-04-02T07:01:07.392Z,88.42
2023-04-02T07:02:07.341Z,88.42
2023-04-02T07:03:07.334Z,88.53
2023-04-02T07:04:07.281Z,88.42
2023-04-02T07:05:07.417Z,88.53
2023-04-02T07:06:07.264Z,88.63
2023-04-02T07:07:07.241Z,88.84
2023-04-02T07:08:07.287Z,88.53
2023-04-02T07:09:07.218Z,88.53
2023-04-02T07:10:07.227Z,88.32
2023-04-02T07:11:07.190Z,88.32
2023-04-02T07:12:07.200Z,88.21
2023-04-02T07:13:07.373Z,88.01
2023-04-02T07:14:07.163Z,87.80
2023-04-02T07:15:07.197Z,87.80
2023-04-02T07:16:08.163Z,87.80
2023-04-02T07:17:07.138Z,87.70
2023-04-02T07:18:07.170Z,87.49
2023-04-02T07:19:07.125Z,87.59
2023-04-02T07:20:07.109Z,87.70
2023-04-02T07:21:07.147Z,87.80
2023-04-02T07:22:07.148Z,87.59
2023-04-02T07:23:09.771Z,87.28
2023-04-02T07:24:07.080Z,87.49
2023-04-02T07:25:07.075Z,87.59
2023-04-02T07:26:07.103Z,87.70
2023-04-02T07:27:07.049Z,88.01
2023-04-02T07:28:07.026Z,88.01
2023-04-02T07:29:07.018Z,88.01
2023-04-02T07:30:07.120Z,87.80
2023-04-02T07:31:06.990Z,87.70
2023-04-02T07:32:07.448Z,87.80
2023-04-02T07:33:07.007Z,87.80
2023-04-02T07:34:06.945Z,87.38
2023-04-02T07:35:06.944Z,87.35
2023-04-02T07:36:07.045Z,87.35
2023-04-02T07:37:06.950Z,87.04
2023-04-02T07:38:06.913Z,86.83
2023-04-02T07:39:06.917Z,86.52
2023-04-02T07:40:06.894Z,86.41
2023-04-02T07:41:06.882Z,86.41
2023-04-02T07:42:06.874Z,86.31
2023-04-02T07:43:06.968Z,86.31
2023-04-02T07:44:06.879Z,86.52
2023-04-02T07:45:06.858Z,86.62
2023-04-02T07:46:06.830Z,86.62
2023-04-02T07:47:07.131Z,86.41
2023-04-02T07:48:06.949Z,86.52
2023-04-02T07:49:06.916Z,86.62
2023-04-02T07:50:06.884Z,86.41
2023-04-02T07:51:06.776Z,86.41
2023-04-02T07:52:06.772Z,86.52
2023-04-02T07:53:06.754Z,86.41
2023-04-02T07:54:06.769Z,86.10
2023-04-02T07:55:06.844Z,86.10
2023-04-02T07:56:06.723Z,86.10
2023-04-02T07:57:06.798Z,85.89
2023-04-02T07:58:06.694Z,85.69
2023-04-02T07:59:06.699Z,85.69
2023-04-02T08:00:06.695Z,85.79
2023-04-02T08:01:06.668Z,85.69
2023-04-02T08:02:06.823Z,85.58
2023-04-02T08:03:08.362Z,85.38
2023-04-02T08:04:06.671Z,85.27
2023-04-02T08:05:06.629Z,85.27
2023-04-02T08:06:06.628Z,85.38
2023-04-02T08:07:06.626Z,85.48
2023-04-02T08:08:06.649Z,85.27
2023-04-02T08:09:06.591Z,85.38
2023-04-02T08:10:06.599Z,85.17
2023-04-02T08:11:06.552Z,85.38
2023-04-02T08:12:06.840Z,85.06
2023-04-02T08:13:06.545Z,85.27
2023-04-02T08:14:06.546Z,85.38
2023-04-02T08:15:06.593Z,84.96
2023-04-02T08:16:06.528Z,84.86
2023-04-02T08:17:06.499Z,84.86
2023-04-02T08:18:06.604Z,84.86
2023-04-02T08:19:06.507Z,84.96
2023-04-02T08:20:06.478Z,84.96
2023-04-02T08:21:06.483Z,85.06
2023-04-02T08:22:06.471Z,85.13
2023-04-02T08:23:06.445Z,85.34
2023-04-02T08:24:06.474Z,85.44
2023-04-02T08:25:06.420Z,85.24
2023-04-02T08:26:06.406Z,85.13
2023-04-02T08:27:06.770Z,85.13
2023-04-02T08:28:06.438Z,85.03
2023-04-02T08:29:06.374Z,85.03
2023-04-02T08:30:06.386Z,84.92
2023-04-02T08:31:06.382Z,84.61
2023-04-02T08:32:06.445Z,84.30
2023-04-02T08:33:06.451Z,84.30
2023-04-02T08:34:06.340Z,84.51
2023-04-02T08:35:06.337Z,84.51
2023-04-02T08:36:06.320Z,84.51
2023-04-02T08:37:06.336Z,84.41
2023-04-02T08:38:06.782Z,84.30
2023-04-02T08:39:06.284Z,84.20
2023-04-02T08:40:06.285Z,84.41
2023-04-02T08:41:06.261Z,84.41
2023-04-02T08:42:06.276Z,84.20
2023-04-02T08:43:06.315Z,84.20
2023-04-02T08:44:06.600Z,84.30
2023-04-02T08:45:17.150Z,84.51
2023-04-02T08:46:07.249Z,84.41
2023-04-02T08:47:06.254Z,84.41
2023-04-02T08:48:06.340Z,84.51
2023-04-02T08:49:06.228Z,84.41
2023-04-02T08:50:06.257Z,84.27
2023-04-02T08:51:06.241Z,84.06
2023-04-02T08:52:06.200Z,84.06
2023-04-02T08:53:06.145Z,83.95
2023-04-02T08:54:06.324Z,83.64
2023-04-02T08:55:06.104Z,83.54
2023-04-02T08:56:06.167Z,90.66
2023-04-02T08:57:06.120Z,96.24
2023-04-02T08:58:06.151Z,91.40
2023-04-02T08:59:06.063Z,84.66
2023-04-02T09:00:06.050Z,77.69
2023-04-02T09:01:06.075Z,75.81
2023-04-02T09:02:06.040Z,76.29
2023-04-02T09:03:06.057Z,77.25
2023-04-02T09:04:06.063Z,78.46
2023-04-02T09:05:06.128Z,79.39
2023-04-02T09:06:06.014Z,80.15
2023-04-02T09:07:05.971Z,80.67
2023-04-02T09:08:05.999Z,81.33
2023-04-02T09:09:05.955Z,81.64
2023-04-02T09:10:06.127Z,81.33
2023-04-02T09:11:05.936Z,81.43
2023-04-02T09:12:07.675Z,81.23
2023-04-02T09:13:05.905Z,81.02
2023-04-02T09:14:15.629Z,80.81
2023-04-02T09:15:06.631Z,80.81
2023-04-02T09:16:07.640Z,81.12
2023-04-02T09:17:07.668Z,81.16
2023-04-02T09:18:05.894Z,81.16
2023-04-02T09:19:05.857Z,81.26
2023-04-02T09:20:05.849Z,81.68
2023-04-02T09:21:05.822Z,81.57
2023-04-02T09:22:05.820Z,81.78
2023-04-02T09:23:05.956Z,81.78
2023-04-02T09:24:05.800Z,81.78
2023-04-02T09:25:05.780Z,81.68
2023-04-02T09:26:05.808Z,81.68
2023-04-02T09:27:05.756Z,81.57
2023-04-02T09:28:05.741Z,81.57
2023-04-02T09:29:05.740Z,81.68
2023-04-02T09:30:05.717Z,81.78
2023-04-02T09:31:07.079Z,81.99
2023-04-02T09:32:05.805Z,82.09
2023-04-02T09:33:05.698Z,82.19
2023-04-02T09:34:05.680Z,82.05
2023-04-02T09:35:12.256Z,81.74
2023-04-02T09:36:09.322Z,81.57
2023-04-02T09:37:05.647Z,81.57
2023-04-02T09:38:05.640Z,81.68
2023-04-02T09:39:05.620Z,81.37
2023-04-02T09:40:05.617Z,81.33
2023-04-02T09:41:05.641Z,81.43
2023-04-02T09:42:06.069Z,81.37
2023-04-02T09:43:05.582Z,81.43
2023-04-02T09:44:05.566Z,81.64
2023-04-02T09:45:05.560Z,81.54
2023-04-02T09:46:05.548Z,81.23
2023-04-02T09:47:05.663Z,81.12
2023-04-02T09:48:05.661Z,81.02
2023-04-02T09:49:05.522Z,80.81
2023-04-02T09:50:05.508Z,80.40
2023-04-02T09:51:05.512Z,80.46
2023-04-02T09:52:05.494Z,80.36
2023-04-02T09:53:08.709Z,80.19
2023-04-02T09:54:05.565Z,80.57
2023-04-02T09:55:05.494Z,80.46
2023-04-02T09:56:05.442Z,80.57
2023-04-02T09:57:06.095Z,80.05
2023-04-02T09:58:05.873Z,79.88
2023-04-02T09:59:05.425Z,79.84
2023-04-02T10:00:05.756Z,80.08
2023-04-02T10:01:05.402Z,80.26
2023-04-02T10:02:05.408Z,80.05
2023-04-02T10:03:05.440Z,80.26
2023-04-02T10:04:05.433Z,80.36
2023-04-02T10:05:05.377Z,80.15
2023-04-02T10:06:05.331Z,80.05
2023-04-02T10:07:05.329Z,80.05
2023-04-02T10:08:05.311Z,80.05
2023-04-02T10:09:05.572Z,79.74
2023-04-02T10:10:05.302Z,79.53
2023-04-02T10:11:05.316Z,79.33
2023-04-02T10:12:05.304Z,79.36
2023-04-02T10:13:05.275Z,79.74
2023-04-02T10:14:05.243Z,79.84
2023-04-02T10:15:05.248Z,79.84
2023-04-02T10:16:05.324Z,79.63
2023-04-02T10:17:05.307Z,79.84
2023-04-02T10:18:05.271Z,79.74
2023-04-02T10:19:05.221Z,79.53
2023-04-02T10:20:05.183Z,79.43
2023-04-02T10:21:05.191Z,79.22
2023-04-02T10:22:05.229Z,78.91
2023-04-02T10:23:06.520Z,79.22
2023-04-02T10:24:05.162Z,79.12
2023-04-02T10:25:05.138Z,79.12
2023-04-02T10:26:05.147Z,79.43
2023-04-02T10:27:05.142Z,79.12
2023-04-02T10:28:05.136Z,79.33
2023-04-02T10:29:06.868Z,79.49
2023-04-02T10:30:05.114Z,78.98
2023-04-02T10:31:05.149Z,78.50
2023-04-02T10:32:05.064Z,78.39
2023-04-02T10:33:05.086Z,78.60
2023-04-02T10:34:05.049Z,78.70
2023-04-02T10:35:05.037Z,78.70
2023-04-02T10:36:05.351Z,78.29
2023-04-02T10:37:05.010Z,77.98
2023-04-02T10:38:04.997Z,77.98
2023-04-02T10:39:05.046Z,77.98
2023-04-02T10:40:04.967Z,78.08
2023-04-02T10:41:04.976Z,78.39
2023-04-02T10:42:04.973Z,78.50
2023-04-02T10:43:04.943Z,78.39
2023-04-02T10:44:13.068Z,78.19
2023-04-02T10:45:05.937Z,78.29
2023-04-02T10:46:05.004Z,78.36
2023-04-02T10:47:04.958Z,78.56
2023-04-02T10:48:05.189Z,78.56
2023-04-02T10:49:04.954Z,78.05
2023-04-02T10:50:07.724Z,77.64
2023-04-02T10:51:04.859Z,77.53
2023-04-02T10:52:04.849Z,77.33
2023-04-02T10:53:04.845Z,77.12
2023-04-02T10:54:04.829Z,76.81
2023-04-02T10:55:04.845Z,76.60
2023-04-02T10:56:04.841Z,77.05
2023-04-02T10:57:04.857Z,77.56
2023-04-02T10:58:04.773Z,77.56
2023-04-02T10:59:04.788Z,77.64
2023-04-02T11:00:04.760Z,77.12
2023-04-02T11:01:04.795Z,77.01
2023-04-02T11:02:04.735Z,77.22
2023-04-02T11:03:04.833Z,77.01
2023-04-02T11:04:04.722Z,76.60
2023-04-02T11:05:04.754Z,76.39
2023-04-02T11:06:04.696Z,76.29
2023-04-02T11:07:13.688Z,76.60
2023-04-02T11:08:05.688Z,76.29
2023-04-02T11:09:04.670Z,76.29
2023-04-02T11:10:04.655Z,75.78
2023-04-02T11:11:04.837Z,76.09
2023-04-02T11:12:04.623Z,76.18
2023-04-02T11:13:04.623Z,75.98
2023-04-02T11:14:04.611Z,75.78
2023-04-02T11:15:04.662Z,75.88
2023-04-02T11:16:04.642Z,75.78
2023-04-02T11:17:04.578Z,75.88
2023-04-02T11:18:04.644Z,75.46
2023-04-02T11:19:04.557Z,75.36
2023-04-02T11:20:04.542Z,75.46
2023-04-02T11:21:04.542Z,75.78
2023-04-02T11:22:06.661Z,75.98
2023-04-02T11:23:04.526Z,75.67
2023-04-02T11:24:04.535Z,75.63
2023-04-02T11:25:04.500Z,75.74
2023-04-02T11:26:04.534Z,75.32
2023-04-02T11:27:04.510Z,74.81
2023-04-02T11:28:04.471Z,74.71
2023-04-02T11:29:04.502Z,75.12
2023-04-02T11:30:04.480Z,75.32
2023-04-02T11:31:04.458Z,75.12
2023-04-02T11:32:04.423Z,75.29
2023-04-02T11:33:04.513Z,74.98
2023-04-02T11:34:04.403Z,74.57
2023-04-02T11:35:07.421Z,74.15
2023-04-02T11:36:04.487Z,73.95
2023-04-02T11:37:04.369Z,73.85
2023-04-02T11:38:04.363Z,73.85
2023-04-02T11:39:11.004Z,74.46
2023-04-02T11:40:05.365Z,74.67
2023-04-02T11:41:04.371Z,74.26
2023-04-02T11:42:04.392Z,73.74
2023-04-02T11:43:04.311Z,73.74
2023-04-02T11:44:04.294Z,74.15
2023-04-02T11:45:04.284Z,74.26
2023-04-02T11:46:04.300Z,74.05
2023-04-02T11:47:04.273Z,73.33
2023-04-02T11:48:04.334Z,73.54
2023-04-02T11:49:09.155Z,73.85
2023-04-02T11:50:04.322Z,73.43
2023-04-02T11:51:04.229Z,73.54
2023-04-02T11:52:11.599Z,73.85
2023-04-02T11:53:05.200Z,73.54
2023-04-02T11:54:04.216Z,73.43
2023-04-02T11:55:04.174Z,73.33
2023-04-02T11:56:04.162Z,73.74
2023-04-02T11:57:04.193Z,73.54
2023-04-02T11:58:04.169Z,73.54
2023-04-02T11:59:04.134Z,73.22
2023-04-02T12:00:04.116Z,73.33
2023-04-02T12:01:04.114Z,73.95
2023-04-02T12:02:04.143Z,74.26
2023-04-02T12:03:04.180Z,74.33
2023-04-02T12:04:04.182Z,73.81
2023-04-02T12:05:04.162Z,73.81
2023-04-02T12:06:04.352Z,73.19
2023-04-02T12:07:04.043Z,72.54
2023-04-02T12:08:04.030Z,72.74
2023-04-02T12:09:04.052Z,72.02
2023-04-02T12:10:04.015Z,71.95
2023-04-02T12:11:04.051Z,72.26
2023-04-02T12:12:03.984Z,72.26
2023-04-02T12:13:03.994Z,72.26
2023-04-02T12:14:03.986Z,72.74
2023-04-02T12:15:03.968Z,72.74
2023-04-02T12:16:03.948Z,72.54
2023-04-02T12:17:04.030Z,72.54
2023-04-02T12:18:04.064Z,72.02
2023-04-02T12:19:03.919Z,71.20
2023-04-02T12:20:05.744Z,70.89
2023-04-02T12:21:03.894Z,71.20
2023-04-02T12:22:03.878Z,71.71
2023-04-02T12:23:03.884Z,71.51
2023-04-02T12:24:03.894Z,71.51
2023-04-02T12:25:03.861Z,71.41
2023-04-02T12:26:03.873Z,70.78
2023-04-02T12:27:03.834Z,70.96
2023-04-02T12:28:03.828Z,71.06
2023-04-02T12:29:03.850Z,70.44
2023-04-02T12:30:03.840Z,69.82
2023-04-02T12:31:04.200Z,69.93
2023-04-02T12:32:03.813Z,70.54
2023-04-02T12:33:03.832Z,70.72
2023-04-02T12:34:03.760Z,70.31
2023-04-02T12:35:03.745Z,70.07
2023-04-02T12:36:03.743Z,70.17
2023-04-02T12:37:03.763Z,69.11
2023-04-02T12:38:03.788Z,68.70
2023-04-02T12:39:03.720Z,68.29
2023-04-02T12:40:03.720Z,68.08
2023-04-02T12:41:03.696Z,68.90
2023-04-02T12:42:03.674Z,69.52
2023-04-02T12:43:03.703Z,69.42
2023-04-02T12:44:03.726Z,68.90
2023-04-02T12:45:03.647Z,68.70
2023-04-02T12:46:03.672Z,68.08
2023-04-02T12:47:03.625Z,67.97
2023-04-02T12:48:03.818Z,67.87
2023-04-02T12:49:03.639Z,67.46
2023-04-02T12:50:04.081Z,67.57
2023-04-02T12:51:03.578Z,67.66
2023-04-02T12:52:03.576Z,67.25